Fairhope, AL (36533)

7:11 AM CDT on June 02, 2015 (GMT -0500)
River Mill | | Change Station
CLOSE
Current Station
Personal Weather Station
Location: Fairhope, AL
Elevation: 121 ft
Nearby Weather Stations

Elev 121 ft 30.52 °N, 87.85 °W | Updated 11 seconds ago

Scattered Clouds
Scattered Clouds
71.6 °F
Feels Like 71.6 °F
N
1.1
Wind Variable Wind from NNE
Gusts 2.5 mph

Today
High -- | Low -- °F
--% Chance of Precip.
Yesterday
High -- | Low -- °F
Precip. -- in
5:49 AM 7:49 PM
Full, 100% visible
Pressure 29.98 in
Visibility 10.0 miles
Clouds Scattered Clouds 11000 ft
Dew Point 70 °F
Humidity 95%
Rainfall 0.00 in
Snow Depth Not available.
UV 1.0 out of 12
Pollen 3.80 out of 12
Air Quality Not available.
Flu Activity Sporadic
METAR KCQF 021135Z AUTO 00000KT 10SM SCT110 21/21 A2998 RMK AO2

More Conditions Fewer Conditions

Pressure 29.98 in
Visibility 10.0 miles
Clouds Scattered Clouds 11000 ft
Dew Point 70 °F
Humidity 95%
Rainfall 0.00 in
Snow Depth Not available.
UV 1.0 out of 12
Pollen 3.80 out of 12
Air Quality Not available.
Flu Activity Sporadic
METAR KCQF 021135Z AUTO 00000KT 10SM SCT110 21/21 A2998 RMK AO2

More Conditions Fewer Conditions

10-Day Weather Forecast

Almanac

Astronomy

Jun. 02, 2015 Rise Set
Actual Time
Civil Twilight
Nautical Twilight
Astronomical Twilight
Moon
Length of Visible Light
Length of Day
Tomorrow will be .
, % of the Moon is Illuminated

Today's Extremes

State Highs State Lows

Community

WunderPhotos

Upload Photos

1,825,879 photos uploaded!

WunderBlogs® & News

Nearby

Air Quality

  Air Quality AQ Index Pollutant
Not available.

Snow Depth

Station Depth Elevation

Earthquake Activity

City Distance Mag. Time & Date
Minimum magnitude displayed is 2.5.

Coastal Water Temperatures

Place Temperature

Stations

Nearby Weather Stations

Station Location Temp. Windchill Dew Point Humidity Wind Precip. Elev Updated Type